sensor_id;sensor_type;location;lat;lon;timestamp;P1;durP1;ratioP1;P2;durP2;ratioP2
77597;SDS011;66756;42.774;23.354;2023-05-10T00:00:39;2.45;;;1.10;;
77597;SDS011;66756;42.774;23.354;2023-05-10T00:03:05;2.20;;;1.02;;
77597;SDS011;66756;42.774;23.354;2023-05-10T00:05:31;3.08;;;0.98;;
77597;SDS011;66756;42.774;23.354;2023-05-10T00:07:57;1.85;;;0.77;;
77597;SDS011;66756;42.774;23.354;2023-05-10T00:10:23;3.00;;;1.10;;
77597;SDS011;66756;42.774;23.354;2023-05-10T00:12:49;3.10;;;1.20;;
77597;SDS011;66756;42.774;23.354;2023-05-10T00:15:15;2.05;;;1.05;;
77597;SDS011;66756;42.774;23.354;2023-05-10T00:17:41;3.05;;;1.83;;
77597;SDS011;66756;42.774;23.354;2023-05-10T00:20:07;4.18;;;1.20;;
77597;SDS011;66756;42.774;23.354;2023-05-10T00:22:33;3.05;;;1.38;;
77597;SDS011;66756;42.774;23.354;2023-05-10T00:25:00;3.00;;;1.25;;
77597;SDS011;66756;42.774;23.354;2023-05-10T00:27:26;3.47;;;1.73;;
77597;SDS011;66756;42.774;23.354;2023-05-10T00:29:52;3.88;;;1.60;;
77597;SDS011;66756;42.774;23.354;2023-05-10T00:32:18;2.47;;;1.02;;
77597;SDS011;66756;42.774;23.354;2023-05-10T00:34:44;3.13;;;1.83;;
77597;SDS011;66756;42.774;23.354;2023-05-10T00:37:10;3.17;;;2.25;;
77597;SDS011;66756;42.774;23.354;2023-05-10T00:39:36;3.30;;;1.92;;
77597;SDS011;66756;42.774;23.354;2023-05-10T00:42:02;2.58;;;1.33;;
77597;SDS011;66756;42.774;23.354;2023-05-10T00:44:29;3.63;;;1.45;;
77597;SDS011;66756;42.774;23.354;2023-05-10T00:46:56;3.22;;;1.67;;
77597;SDS011;66756;42.774;23.354;2023-05-10T00:49:22;4.35;;;1.67;;
77597;SDS011;66756;42.774;23.354;2023-05-10T00:51:48;3.03;;;1.30;;
77597;SDS011;66756;42.774;23.354;2023-05-10T00:54:14;2.53;;;1.50;;
77597;SDS011;66756;42.774;23.354;2023-05-10T00:56:41;2.90;;;2.38;;
77597;SDS011;66756;42.774;23.354;2023-05-10T00:59:08;4.43;;;1.90;;
77597;SDS011;66756;42.774;23.354;2023-05-10T01:01:34;3.30;;;1.88;;
77597;SDS011;66756;42.774;23.354;2023-05-10T01:04:01;4.93;;;2.60;;
77597;SDS011;66756;42.774;23.354;2023-05-10T01:06:28;2.90;;;1.92;;
77597;SDS011;66756;42.774;23.354;2023-05-10T01:08:54;4.07;;;1.60;;
77597;SDS011;66756;42.774;23.354;2023-05-10T01:11:20;4.15;;;2.08;;
77597;SDS011;66756;42.774;23.354;2023-05-10T01:13:47;4.43;;;2.17;;
77597;SDS011;66756;42.774;23.354;2023-05-10T01:16:16;3.95;;;2.08;;
77597;SDS011;66756;42.774;23.354;2023-05-10T01:18:42;3.80;;;2.08;;
77597;SDS011;66756;42.774;23.354;2023-05-10T01:26:14;4.57;;;2.38;;
77597;SDS011;66756;42.774;23.354;2023-05-10T01:28:49;4.18;;;2.45;;
77597;SDS011;66756;42.774;23.354;2023-05-10T01:31:39;4.35;;;2.22;;
77597;SDS011;66756;42.774;23.354;2023-05-10T01:34:27;4.82;;;2.17;;
77597;SDS011;66756;42.774;23.354;2023-05-10T01:36:58;3.60;;;2.15;;
77597;SDS011;66756;42.774;23.354;2023-05-10T01:39:25;5.45;;;2.88;;
77597;SDS011;66756;42.774;23.354;2023-05-10T01:42:08;4.95;;;3.03;;
77597;SDS011;66756;42.774;23.354;2023-05-10T01:47:14;5.63;;;3.47;;
77597;SDS011;66756;42.774;23.354;2023-05-10T01:49:45;5.80;;;3.75;;
77597;SDS011;66756;42.774;23.354;2023-05-10T01:52:14;6.05;;;4.00;;
77597;SDS011;66756;42.774;23.354;2023-05-10T01:54:42;5.55;;;3.28;;
77597;SDS011;66756;42.774;23.354;2023-05-10T01:57:10;6.88;;;3.95;;
77597;SDS011;66756;42.774;23.354;2023-05-10T01:59:39;6.43;;;4.15;;
77597;SDS011;66756;42.774;23.354;2023-05-10T02:02:06;5.78;;;3.78;;
77597;SDS011;66756;42.774;23.354;2023-05-10T02:04:33;6.65;;;4.30;;
77597;SDS011;66756;42.774;23.354;2023-05-10T02:07:01;5.35;;;3.70;;
77597;SDS011;66756;42.774;23.354;2023-05-10T02:09:27;7.88;;;4.30;;
77597;SDS011;66756;42.774;23.354;2023-05-10T02:11:54;5.95;;;4.05;;
77597;SDS011;66756;42.774;23.354;2023-05-10T02:14:21;6.10;;;4.38;;
77597;SDS011;66756;42.774;23.354;2023-05-10T02:16:49;5.45;;;3.45;;
77597;SDS011;66756;42.774;23.354;2023-05-10T02:19:16;6.43;;;4.22;;
77597;SDS011;66756;42.774;23.354;2023-05-10T02:21:43;6.65;;;3.97;;
77597;SDS011;66756;42.774;23.354;2023-05-10T02:24:10;7.43;;;4.80;;
77597;SDS011;66756;42.774;23.354;2023-05-10T02:26:37;6.80;;;4.13;;
77597;SDS011;66756;42.774;23.354;2023-05-10T02:29:03;6.68;;;3.95;;
77597;SDS011;66756;42.774;23.354;2023-05-10T02:31:31;6.57;;;3.70;;
77597;SDS011;66756;42.774;23.354;2023-05-10T02:33:58;7.22;;;3.70;;
77597;SDS011;66756;42.774;23.354;2023-05-10T02:36:25;7.00;;;3.75;;
77597;SDS011;66756;42.774;23.354;2023-05-10T02:38:52;5.03;;;2.85;;
77597;SDS011;66756;42.774;23.354;2023-05-10T02:41:19;6.45;;;3.75;;
77597;SDS011;66756;42.774;23.354;2023-05-10T02:43:47;5.55;;;3.67;;
77597;SDS011;66756;42.774;23.354;2023-05-10T02:46:14;4.25;;;2.50;;
77597;SDS011;66756;42.774;23.354;2023-05-10T02:48:40;4.88;;;3.17;;
77597;SDS011;66756;42.774;23.354;2023-05-10T02:51:07;3.35;;;2.17;;
77597;SDS011;66756;42.774;23.354;2023-05-10T02:53:34;5.30;;;3.20;;
77597;SDS011;66756;42.774;23.354;2023-05-10T02:56:02;5.13;;;2.28;;
77597;SDS011;66756;42.774;23.354;2023-05-10T02:58:29;3.92;;;1.95;;
77597;SDS011;66756;42.774;23.354;2023-05-10T03:00:55;5.40;;;2.58;;
77597;SDS011;66756;42.774;23.354;2023-05-10T03:03:21;4.53;;;2.50;;
77597;SDS011;66756;42.774;23.354;2023-05-10T03:05:47;4.70;;;2.83;;
77597;SDS011;66756;42.774;23.354;2023-05-10T03:08:13;6.03;;;2.90;;
77597;SDS011;66756;42.774;23.354;2023-05-10T03:10:47;5.03;;;2.38;;
77597;SDS011;66756;42.774;23.354;2023-05-10T03:13:18;3.88;;;2.25;;
77597;SDS011;66756;42.774;23.354;2023-05-10T03:15:55;7.32;;;2.30;;
77597;SDS011;66756;42.774;23.354;2023-05-10T03:18:22;5.57;;;2.58;;
77597;SDS011;66756;42.774;23.354;2023-05-10T03:20:50;3.58;;;2.10;;
77597;SDS011;66756;42.774;23.354;2023-05-10T03:23:25;4.40;;;3.25;;
77597;SDS011;66756;42.774;23.354;2023-05-10T03:25:52;4.32;;;2.10;;
77597;SDS011;66756;42.774;23.354;2023-05-10T03:28:18;4.45;;;2.72;;
77597;SDS011;66756;42.774;23.354;2023-05-10T03:30:46;4.28;;;2.63;;
77597;SDS011;66756;42.774;23.354;2023-05-10T03:33:12;3.97;;;2.13;;
77597;SDS011;66756;42.774;23.354;2023-05-10T03:35:39;4.53;;;2.20;;
77597;SDS011;66756;42.774;23.354;2023-05-10T03:38:05;4.20;;;2.53;;
77597;SDS011;66756;42.774;23.354;2023-05-10T03:40:31;4.07;;;2.42;;
77597;SDS011;66756;42.774;23.354;2023-05-10T03:42:57;7.30;;;2.85;;
77597;SDS011;66756;42.774;23.354;2023-05-10T03:45:24;3.50;;;1.92;;
77597;SDS011;66756;42.774;23.354;2023-05-10T03:47:50;7.22;;;2.42;;
77597;SDS011;66756;42.774;23.354;2023-05-10T03:50:16;3.85;;;2.53;;
77597;SDS011;66756;42.774;23.354;2023-05-10T03:52:42;4.18;;;2.22;;
77597;SDS011;66756;42.774;23.354;2023-05-10T03:55:08;4.90;;;2.42;;
77597;SDS011;66756;42.774;23.354;2023-05-10T03:57:34;3.10;;;1.85;;
77597;SDS011;66756;42.774;23.354;2023-05-10T04:00:00;3.75;;;2.10;;
77597;SDS011;66756;42.774;23.354;2023-05-10T04:02:26;4.60;;;2.28;;
77597;SDS011;66756;42.774;23.354;2023-05-10T04:04:52;5.68;;;2.40;;
77597;SDS011;66756;42.774;23.354;2023-05-10T04:07:18;4.28;;;2.63;;
77597;SDS011;66756;42.774;23.354;2023-05-10T04:09:44;4.60;;;2.35;;
77597;SDS011;66756;42.774;23.354;2023-05-10T04:12:10;5.22;;;2.85;;
77597;SDS011;66756;42.774;23.354;2023-05-10T04:14:36;3.92;;;2.72;;
77597;SDS011;66756;42.774;23.354;2023-05-10T04:17:02;4.30;;;2.33;;
77597;SDS011;66756;42.774;23.354;2023-05-10T04:19:32;4.53;;;2.63;;
77597;SDS011;66756;42.774;23.354;2023-05-10T04:21:58;5.05;;;2.45;;
77597;SDS011;66756;42.774;23.354;2023-05-10T04:24:24;4.75;;;2.65;;
77597;SDS011;66756;42.774;23.354;2023-05-10T04:26:51;4.57;;;2.50;;
77597;SDS011;66756;42.774;23.354;2023-05-10T04:29:17;6.00;;;3.17;;
77597;SDS011;66756;42.774;23.354;2023-05-10T04:31:43;4.35;;;1.92;;
77597;SDS011;66756;42.774;23.354;2023-05-10T04:34:09;7.45;;;2.90;;
77597;SDS011;66756;42.774;23.354;2023-05-10T04:36:35;5.32;;;2.95;;
77597;SDS011;66756;42.774;23.354;2023-05-10T04:39:02;6.53;;;2.97;;
77597;SDS011;66756;42.774;23.354;2023-05-10T04:41:28;4.82;;;2.63;;
77597;SDS011;66756;42.774;23.354;2023-05-10T04:43:54;4.97;;;2.85;;
77597;SDS011;66756;42.774;23.354;2023-05-10T04:46:20;7.57;;;2.80;;
77597;SDS011;66756;42.774;23.354;2023-05-10T04:48:46;5.35;;;2.65;;
77597;SDS011;66756;42.774;23.354;2023-05-10T04:51:12;5.00;;;2.25;;
77597;SDS011;66756;42.774;23.354;2023-05-10T04:53:39;5.32;;;2.20;;
77597;SDS011;66756;42.774;23.354;2023-05-10T04:56:05;3.85;;;1.95;;
77597;SDS011;66756;42.774;23.354;2023-05-10T04:58:31;4.47;;;1.92;;
77597;SDS011;66756;42.774;23.354;2023-05-10T05:01:04;4.00;;;2.03;;
77597;SDS011;66756;42.774;23.354;2023-05-10T05:03:30;5.25;;;2.40;;
77597;SDS011;66756;42.774;23.354;2023-05-10T05:05:57;4.32;;;2.25;;
77597;SDS011;66756;42.774;23.354;2023-05-10T05:08:23;4.43;;;2.58;;
77597;SDS011;66756;42.774;23.354;2023-05-10T05:10:50;5.07;;;2.38;;
77597;SDS011;66756;42.774;23.354;2023-05-10T05:13:16;3.53;;;2.22;;
77597;SDS011;66756;42.774;23.354;2023-05-10T05:15:42;6.35;;;2.25;;
77597;SDS011;66756;42.774;23.354;2023-05-10T05:18:08;4.40;;;2.00;;
77597;SDS011;66756;42.774;23.354;2023-05-10T05:20:34;3.90;;;2.17;;
77597;SDS011;66756;42.774;23.354;2023-05-10T05:23:00;4.75;;;2.38;;
77597;SDS011;66756;42.774;23.354;2023-05-10T05:25:26;4.80;;;1.85;;
77597;SDS011;66756;42.774;23.354;2023-05-10T05:27:52;3.60;;;2.20;;
77597;SDS011;66756;42.774;23.354;2023-05-10T05:30:18;5.15;;;2.50;;
77597;SDS011;66756;42.774;23.354;2023-05-10T05:32:44;4.25;;;1.98;;
77597;SDS011;66756;42.774;23.354;2023-05-10T05:35:12;3.55;;;1.90;;
77597;SDS011;66756;42.774;23.354;2023-05-10T05:37:38;3.33;;;1.58;;
77597;SDS011;66756;42.774;23.354;2023-05-10T05:40:04;7.07;;;2.20;;
77597;SDS011;66756;42.774;23.354;2023-05-10T05:42:31;4.55;;;1.92;;
77597;SDS011;66756;42.774;23.354;2023-05-10T05:44:57;5.75;;;2.47;;
77597;SDS011;66756;42.774;23.354;2023-05-10T05:47:23;4.95;;;2.33;;
77597;SDS011;66756;42.774;23.354;2023-05-10T05:49:49;5.70;;;2.10;;
77597;SDS011;66756;42.774;23.354;2023-05-10T05:52:15;4.40;;;2.15;;
77597;SDS011;66756;42.774;23.354;2023-05-10T05:54:41;4.72;;;2.22;;
77597;SDS011;66756;42.774;23.354;2023-05-10T05:57:07;4.30;;;1.88;;
77597;SDS011;66756;42.774;23.354;2023-05-10T05:59:34;6.13;;;2.65;;
77597;SDS011;66756;42.774;23.354;2023-05-10T06:02:00;4.88;;;1.85;;
77597;SDS011;66756;42.774;23.354;2023-05-10T06:04:26;4.40;;;2.55;;
77597;SDS011;66756;42.774;23.354;2023-05-10T06:06:52;7.20;;;2.72;;
77597;SDS011;66756;42.774;23.354;2023-05-10T06:09:18;4.30;;;2.08;;
77597;SDS011;66756;42.774;23.354;2023-05-10T06:11:44;3.50;;;1.80;;
77597;SDS011;66756;42.774;23.354;2023-05-10T06:14:10;3.60;;;1.60;;
77597;SDS011;66756;42.774;23.354;2023-05-10T06:16:36;4.57;;;1.75;;
77597;SDS011;66756;42.774;23.354;2023-05-10T06:19:02;5.03;;;1.60;;
77597;SDS011;66756;42.774;23.354;2023-05-10T06:21:28;5.57;;;2.08;;
77597;SDS011;66756;42.774;23.354;2023-05-10T06:23:55;3.75;;;1.55;;
77597;SDS011;66756;42.774;23.354;2023-05-10T06:26:21;2.88;;;1.83;;
77597;SDS011;66756;42.774;23.354;2023-05-10T06:28:47;4.53;;;1.85;;
77597;SDS011;66756;42.774;23.354;2023-05-10T06:31:13;3.72;;;1.65;;
77597;SDS011;66756;42.774;23.354;2023-05-10T06:33:39;3.67;;;1.38;;
77597;SDS011;66756;42.774;23.354;2023-05-10T06:36:05;3.28;;;2.05;;
77597;SDS011;66756;42.774;23.354;2023-05-10T06:38:32;3.70;;;1.85;;
77597;SDS011;66756;42.774;23.354;2023-05-10T06:40:58;3.53;;;1.88;;
77597;SDS011;66756;42.774;23.354;2023-05-10T06:43:24;2.90;;;1.90;;
77597;SDS011;66756;42.774;23.354;2023-05-10T06:45:51;4.15;;;2.10;;
77597;SDS011;66756;42.774;23.354;2023-05-10T06:48:17;6.75;;;2.08;;
77597;SDS011;66756;42.774;23.354;2023-05-10T06:50:43;3.22;;;1.75;;
77597;SDS011;66756;42.774;23.354;2023-05-10T06:53:09;5.53;;;2.13;;
77597;SDS011;66756;42.774;23.354;2023-05-10T06:55:37;5.05;;;1.98;;
77597;SDS011;66756;42.774;23.354;2023-05-10T06:58:03;3.63;;;2.05;;
77597;SDS011;66756;42.774;23.354;2023-05-10T07:00:29;4.40;;;2.47;;
77597;SDS011;66756;42.774;23.354;2023-05-10T07:02:55;4.15;;;2.70;;
77597;SDS011;66756;42.774;23.354;2023-05-10T07:05:21;6.18;;;2.17;;
77597;SDS011;66756;42.774;23.354;2023-05-10T07:07:47;4.53;;;2.58;;
77597;SDS011;66756;42.774;23.354;2023-05-10T07:10:13;5.85;;;2.13;;
77597;SDS011;66756;42.774;23.354;2023-05-10T07:12:40;3.78;;;1.92;;
77597;SDS011;66756;42.774;23.354;2023-05-10T07:15:06;3.97;;;1.88;;
77597;SDS011;66756;42.774;23.354;2023-05-10T07:17:33;4.30;;;2.08;;
77597;SDS011;66756;42.774;23.354;2023-05-10T07:19:59;4.90;;;2.60;;
77597;SDS011;66756;42.774;23.354;2023-05-10T07:22:25;4.97;;;2.38;;
77597;SDS011;66756;42.774;23.354;2023-05-10T07:24:51;4.93;;;2.13;;
77597;SDS011;66756;42.774;23.354;2023-05-10T07:27:17;6.80;;;2.35;;
77597;SDS011;66756;42.774;23.354;2023-05-10T07:29:43;6.10;;;2.13;;
77597;SDS011;66756;42.774;23.354;2023-05-10T07:32:09;5.10;;;2.10;;
77597;SDS011;66756;42.774;23.354;2023-05-10T07:34:35;4.18;;;2.33;;
77597;SDS011;66756;42.774;23.354;2023-05-10T07:37:01;6.00;;;2.03;;
77597;SDS011;66756;42.774;23.354;2023-05-10T07:39:27;4.50;;;2.65;;
77597;SDS011;66756;42.774;23.354;2023-05-10T07:41:54;4.47;;;2.42;;
77597;SDS011;66756;42.774;23.354;2023-05-10T07:44:20;4.50;;;2.63;;
77597;SDS011;66756;42.774;23.354;2023-05-10T07:46:46;4.05;;;2.17;;
77597;SDS011;66756;42.774;23.354;2023-05-10T07:49:14;5.13;;;2.00;;
77597;SDS011;66756;42.774;23.354;2023-05-10T07:51:40;5.45;;;3.15;;
77597;SDS011;66756;42.774;23.354;2023-05-10T07:54:07;5.20;;;3.17;;
77597;SDS011;66756;42.774;23.354;2023-05-10T07:56:33;5.57;;;2.67;;
77597;SDS011;66756;42.774;23.354;2023-05-10T07:59:00;4.55;;;2.45;;
77597;SDS011;66756;42.774;23.354;2023-05-10T08:01:26;4.93;;;2.63;;
77597;SDS011;66756;42.774;23.354;2023-05-10T08:03:52;6.22;;;2.80;;
77597;SDS011;66756;42.774;23.354;2023-05-10T08:06:18;3.85;;;2.28;;
77597;SDS011;66756;42.774;23.354;2023-05-10T08:08:45;4.55;;;2.50;;
77597;SDS011;66756;42.774;23.354;2023-05-10T08:11:14;5.50;;;2.40;;
77597;SDS011;66756;42.774;23.354;2023-05-10T08:13:40;4.15;;;2.50;;
77597;SDS011;66756;42.774;23.354;2023-05-10T08:16:06;5.20;;;2.45;;
77597;SDS011;66756;42.774;23.354;2023-05-10T08:18:32;4.85;;;2.92;;
77597;SDS011;66756;42.774;23.354;2023-05-10T08:20:58;5.45;;;2.72;;
77597;SDS011;66756;42.774;23.354;2023-05-10T08:23:24;8.45;;;3.10;;
77597;SDS011;66756;42.774;23.354;2023-05-10T08:25:50;6.30;;;3.85;;
77597;SDS011;66756;42.774;23.354;2023-05-10T08:28:16;5.10;;;2.92;;
77597;SDS011;66756;42.774;23.354;2023-05-10T08:30:42;7.05;;;3.10;;
77597;SDS011;66756;42.774;23.354;2023-05-10T08:33:09;6.57;;;3.30;;
77597;SDS011;66756;42.774;23.354;2023-05-10T08:35:35;5.55;;;3.22;;
77597;SDS011;66756;42.774;23.354;2023-05-10T08:38:01;7.95;;;3.00;;
77597;SDS011;66756;42.774;23.354;2023-05-10T08:40:27;6.53;;;3.70;;
77597;SDS011;66756;42.774;23.354;2023-05-10T08:43:04;4.55;;;2.58;;
77597;SDS011;66756;42.774;23.354;2023-05-10T08:45:32;4.47;;;2.88;;
77597;SDS011;66756;42.774;23.354;2023-05-10T08:47:59;4.32;;;2.90;;
77597;SDS011;66756;42.774;23.354;2023-05-10T08:50:27;5.05;;;2.88;;
77597;SDS011;66756;42.774;23.354;2023-05-10T08:52:54;4.88;;;3.70;;
77597;SDS011;66756;42.774;23.354;2023-05-10T08:55:21;6.35;;;3.15;;
77597;SDS011;66756;42.774;23.354;2023-05-10T08:57:48;3.97;;;2.85;;
77597;SDS011;66756;42.774;23.354;2023-05-10T09:00:15;5.25;;;2.88;;
77597;SDS011;66756;42.774;23.354;2023-05-10T09:02:42;5.85;;;3.13;;
77597;SDS011;66756;42.774;23.354;2023-05-10T09:05:10;4.05;;;3.17;;
77597;SDS011;66756;42.774;23.354;2023-05-10T09:07:36;4.75;;;2.53;;
77597;SDS011;66756;42.774;23.354;2023-05-10T09:10:02;4.43;;;2.83;;
77597;SDS011;66756;42.774;23.354;2023-05-10T09:12:29;4.53;;;3.15;;
77597;SDS011;66756;42.774;23.354;2023-05-10T09:14:56;4.07;;;2.53;;
77597;SDS011;66756;42.774;23.354;2023-05-10T09:17:24;4.07;;;2.67;;
77597;SDS011;66756;42.774;23.354;2023-05-10T09:19:56;4.97;;;3.05;;
77597;SDS011;66756;42.774;23.354;2023-05-10T09:22:23;4.07;;;3.45;;
77597;SDS011;66756;42.774;23.354;2023-05-10T09:25:02;6.80;;;3.83;;
77597;SDS011;66756;42.774;23.354;2023-05-10T09:27:28;4.55;;;3.30;;
77597;SDS011;66756;42.774;23.354;2023-05-10T09:29:54;6.70;;;3.63;;
77597;SDS011;66756;42.774;23.354;2023-05-10T09:32:20;5.85;;;3.33;;
77597;SDS011;66756;42.774;23.354;2023-05-10T09:34:46;5.65;;;3.80;;
77597;SDS011;66756;42.774;23.354;2023-05-10T09:37:16;5.38;;;3.38;;
77597;SDS011;66756;42.774;23.354;2023-05-10T09:39:42;5.95;;;3.50;;
77597;SDS011;66756;42.774;23.354;2023-05-10T09:42:08;9.10;;;3.63;;
77597;SDS011;66756;42.774;23.354;2023-05-10T09:44:35;5.45;;;3.20;;
77597;SDS011;66756;42.774;23.354;2023-05-10T09:47:01;10.77;;;4.43;;
77597;SDS011;66756;42.774;23.354;2023-05-10T09:49:28;5.03;;;2.70;;
77597;SDS011;66756;42.774;23.354;2023-05-10T09:52:04;7.40;;;3.85;;
77597;SDS011;66756;42.774;23.354;2023-05-10T09:54:30;4.05;;;2.50;;
77597;SDS011;66756;42.774;23.354;2023-05-10T09:56:56;4.13;;;2.45;;
77597;SDS011;66756;42.774;23.354;2023-05-10T09:59:24;4.65;;;3.00;;
77597;SDS011;66756;42.774;23.354;2023-05-10T10:01:51;4.35;;;2.92;;
77597;SDS011;66756;42.774;23.354;2023-05-10T10:04:17;7.13;;;3.00;;
77597;SDS011;66756;42.774;23.354;2023-05-10T10:06:43;5.05;;;3.17;;
77597;SDS011;66756;42.774;23.354;2023-05-10T10:09:10;4.95;;;3.45;;
77597;SDS011;66756;42.774;23.354;2023-05-10T10:11:36;5.57;;;3.58;;
77597;SDS011;66756;42.774;23.354;2023-05-10T10:14:02;4.78;;;3.00;;
77597;SDS011;66756;42.774;23.354;2023-05-10T10:16:29;5.20;;;3.00;;
77597;SDS011;66756;42.774;23.354;2023-05-10T10:18:55;4.53;;;2.55;;
77597;SDS011;66756;42.774;23.354;2023-05-10T10:21:22;6.43;;;3.38;;
77597;SDS011;66756;42.774;23.354;2023-05-10T10:23:48;4.10;;;2.25;;
77597;SDS011;66756;42.774;23.354;2023-05-10T10:26:15;4.40;;;3.10;;
77597;SDS011;66756;42.774;23.354;2023-05-10T10:29:00;4.72;;;2.53;;
77597;SDS011;66756;42.774;23.354;2023-05-10T10:31:34;4.03;;;2.75;;
77597;SDS011;66756;42.774;23.354;2023-05-10T10:34:05;4.00;;;2.50;;
77597;SDS011;66756;42.774;23.354;2023-05-10T10:36:43;3.28;;;2.03;;
77597;SDS011;66756;42.774;23.354;2023-05-10T10:39:09;4.05;;;2.40;;
77597;SDS011;66756;42.774;23.354;2023-05-10T10:41:36;5.18;;;2.30;;
77597;SDS011;66756;42.774;23.354;2023-05-10T10:49:31;4.28;;;2.70;;
77597;SDS011;66756;42.774;23.354;2023-05-10T10:54:51;3.47;;;2.17;;
77597;SDS011;66756;42.774;23.354;2023-05-10T10:57:18;4.50;;;2.42;;
77597;SDS011;66756;42.774;23.354;2023-05-10T10:59:44;2.97;;;2.00;;
77597;SDS011;66756;42.774;23.354;2023-05-10T11:04:55;4.45;;;2.03;;
77597;SDS011;66756;42.774;23.354;2023-05-10T11:07:21;4.13;;;2.65;;
77597;SDS011;66756;42.774;23.354;2023-05-10T11:09:48;4.18;;;2.38;;
77597;SDS011;66756;42.774;23.354;2023-05-10T11:12:14;4.95;;;2.80;;
77597;SDS011;66756;42.774;23.354;2023-05-10T11:14:40;4.50;;;2.42;;
77597;SDS011;66756;42.774;23.354;2023-05-10T11:17:25;5.88;;;2.88;;
77597;SDS011;66756;42.774;23.354;2023-05-10T11:20:08;4.57;;;2.22;;
77597;SDS011;66756;42.774;23.354;2023-05-10T11:22:50;3.75;;;2.63;;
77597;SDS011;66756;42.774;23.354;2023-05-10T11:25:16;5.05;;;2.20;;
77597;SDS011;66756;42.774;23.354;2023-05-10T11:27:42;4.72;;;2.60;;
77597;SDS011;66756;42.774;23.354;2023-05-10T11:30:09;3.00;;;2.03;;
77597;SDS011;66756;42.774;23.354;2023-05-10T11:32:39;3.33;;;2.28;;
77597;SDS011;66756;42.774;23.354;2023-05-10T11:35:09;5.03;;;2.50;;
77597;SDS011;66756;42.774;23.354;2023-05-10T11:37:35;4.25;;;2.50;;
77597;SDS011;66756;42.774;23.354;2023-05-10T11:40:02;4.60;;;2.10;;
77597;SDS011;66756;42.774;23.354;2023-05-10T11:42:28;5.00;;;1.88;;
77597;SDS011;66756;42.774;23.354;2023-05-10T11:44:55;4.05;;;1.85;;
77597;SDS011;66756;42.774;23.354;2023-05-10T11:47:21;5.35;;;2.47;;
77597;SDS011;66756;42.774;23.354;2023-05-10T11:49:47;5.05;;;2.10;;
77597;SDS011;66756;42.774;23.354;2023-05-10T11:52:13;4.03;;;2.63;;
77597;SDS011;66756;42.774;23.354;2023-05-10T11:54:50;4.82;;;2.63;;
77597;SDS011;66756;42.774;23.354;2023-05-10T11:57:18;5.70;;;2.72;;
77597;SDS011;66756;42.774;23.354;2023-05-10T11:59:45;5.20;;;3.28;;
77597;SDS011;66756;42.774;23.354;2023-05-10T12:02:11;3.72;;;1.85;;
77597;SDS011;66756;42.774;23.354;2023-05-10T12:04:37;3.53;;;2.40;;
77597;SDS011;66756;42.774;23.354;2023-05-10T12:07:04;4.68;;;3.08;;
77597;SDS011;66756;42.774;23.354;2023-05-10T12:09:30;5.03;;;3.15;;
77597;SDS011;66756;42.774;23.354;2023-05-10T12:11:56;4.82;;;2.60;;
77597;SDS011;66756;42.774;23.354;2023-05-10T12:14:22;4.28;;;2.45;;
77597;SDS011;66756;42.774;23.354;2023-05-10T12:16:49;5.68;;;2.00;;
77597;SDS011;66756;42.774;23.354;2023-05-10T12:19:18;5.80;;;2.38;;
77597;SDS011;66756;42.774;23.354;2023-05-10T12:21:46;3.30;;;2.03;;
77597;SDS011;66756;42.774;23.354;2023-05-10T12:24:12;5.15;;;2.17;;
77597;SDS011;66756;42.774;23.354;2023-05-10T12:26:41;4.97;;;2.45;;
77597;SDS011;66756;42.774;23.354;2023-05-10T12:29:14;5.57;;;2.80;;
77597;SDS011;66756;42.774;23.354;2023-05-10T12:31:56;8.23;;;3.05;;
77597;SDS011;66756;42.774;23.354;2023-05-10T12:34:33;3.50;;;2.13;;
77597;SDS011;66756;42.774;23.354;2023-05-10T12:37:00;4.75;;;2.53;;
77597;SDS011;66756;42.774;23.354;2023-05-10T12:39:43;5.68;;;2.55;;
77597;SDS011;66756;42.774;23.354;2023-05-10T12:42:09;3.30;;;2.53;;
77597;SDS011;66756;42.774;23.354;2023-05-10T12:44:36;5.50;;;2.10;;
77597;SDS011;66756;42.774;23.354;2023-05-10T12:47:02;5.78;;;2.38;;
77597;SDS011;66756;42.774;23.354;2023-05-10T12:49:28;4.35;;;2.58;;
77597;SDS011;66756;42.774;23.354;2023-05-10T12:51:54;4.88;;;2.25;;
77597;SDS011;66756;42.774;23.354;2023-05-10T12:54:20;4.72;;;3.13;;
77597;SDS011;66756;42.774;23.354;2023-05-10T12:56:46;7.03;;;2.83;;
77597;SDS011;66756;42.774;23.354;2023-05-10T12:59:12;3.63;;;2.22;;
77597;SDS011;66756;42.774;23.354;2023-05-10T13:01:38;5.22;;;2.70;;
77597;SDS011;66756;42.774;23.354;2023-05-10T13:04:04;5.60;;;2.78;;
77597;SDS011;66756;42.774;23.354;2023-05-10T13:06:30;6.53;;;2.72;;
77597;SDS011;66756;42.774;23.354;2023-05-10T13:08:56;6.28;;;2.67;;
77597;SDS011;66756;42.774;23.354;2023-05-10T13:11:22;4.47;;;2.63;;
77597;SDS011;66756;42.774;23.354;2023-05-10T13:13:49;4.72;;;2.63;;
77597;SDS011;66756;42.774;23.354;2023-05-10T13:16:14;6.03;;;2.80;;
77597;SDS011;66756;42.774;23.354;2023-05-10T13:18:41;5.88;;;3.47;;
77597;SDS011;66756;42.774;23.354;2023-05-10T13:21:07;5.18;;;2.92;;
77597;SDS011;66756;42.774;23.354;2023-05-10T13:23:33;4.78;;;3.28;;
77597;SDS011;66756;42.774;23.354;2023-05-10T13:25:59;6.40;;;2.80;;
77597;SDS011;66756;42.774;23.354;2023-05-10T13:28:25;4.72;;;2.80;;
77597;SDS011;66756;42.774;23.354;2023-05-10T13:30:51;4.90;;;2.72;;
77597;SDS011;66756;42.774;23.354;2023-05-10T13:33:17;6.03;;;2.75;;
77597;SDS011;66756;42.774;23.354;2023-05-10T13:35:43;6.68;;;2.97;;
77597;SDS011;66756;42.774;23.354;2023-05-10T13:38:10;5.22;;;3.20;;
77597;SDS011;66756;42.774;23.354;2023-05-10T13:40:36;6.68;;;3.10;;
77597;SDS011;66756;42.774;23.354;2023-05-10T13:43:02;4.65;;;3.28;;
77597;SDS011;66756;42.774;23.354;2023-05-10T13:45:28;5.38;;;3.13;;
77597;SDS011;66756;42.774;23.354;2023-05-10T13:47:54;4.70;;;2.60;;
77597;SDS011;66756;42.774;23.354;2023-05-10T13:50:20;4.78;;;3.17;;
77597;SDS011;66756;42.774;23.354;2023-05-10T13:52:46;4.78;;;2.90;;
77597;SDS011;66756;42.774;23.354;2023-05-10T13:55:12;5.10;;;3.00;;
77597;SDS011;66756;42.774;23.354;2023-05-10T13:58:17;5.30;;;2.85;;
77597;SDS011;66756;42.774;23.354;2023-05-10T14:00:43;4.78;;;2.92;;
77597;SDS011;66756;42.774;23.354;2023-05-10T14:03:09;5.57;;;2.90;;
77597;SDS011;66756;42.774;23.354;2023-05-10T14:05:35;6.05;;;2.70;;
77597;SDS011;66756;42.774;23.354;2023-05-10T14:08:02;6.93;;;3.22;;
77597;SDS011;66756;42.774;23.354;2023-05-10T14:10:28;4.05;;;3.25;;
77597;SDS011;66756;42.774;23.354;2023-05-10T14:12:55;5.78;;;2.78;;
77597;SDS011;66756;42.774;23.354;2023-05-10T14:15:21;5.32;;;4.07;;
77597;SDS011;66756;42.774;23.354;2023-05-10T14:17:47;5.82;;;3.55;;
77597;SDS011;66756;42.774;23.354;2023-05-10T14:20:13;4.75;;;2.85;;
77597;SDS011;66756;42.774;23.354;2023-05-10T14:22:40;4.75;;;3.08;;
77597;SDS011;66756;42.774;23.354;2023-05-10T14:25:06;6.07;;;3.17;;
77597;SDS011;66756;42.774;23.354;2023-05-10T14:27:32;6.00;;;3.03;;
77597;SDS011;66756;42.774;23.354;2023-05-10T14:29:58;6.57;;;3.53;;
77597;SDS011;66756;42.774;23.354;2023-05-10T14:32:24;4.72;;;3.53;;
77597;SDS011;66756;42.774;23.354;2023-05-10T14:34:52;6.13;;;3.00;;
77597;SDS011;66756;42.774;23.354;2023-05-10T14:37:18;6.65;;;4.80;;
77597;SDS011;66756;42.774;23.354;2023-05-10T14:39:44;20.50;;;11.82;;
77597;SDS011;66756;42.774;23.354;2023-05-10T14:42:10;45.15;;;25.45;;
77597;SDS011;66756;42.774;23.354;2023-05-10T14:44:36;109.00;;;68.18;;
77597;SDS011;66756;42.774;23.354;2023-05-10T14:47:03;49.47;;;39.72;;
77597;SDS011;66756;42.774;23.354;2023-05-10T14:49:30;8.52;;;7.70;;
77597;SDS011;66756;42.774;23.354;2023-05-10T14:51:56;5.47;;;3.55;;